sensor_id;sensor_type;location;lat;lon;timestamp;pressure;altitude;pressure_sealevel;temperature;humidity
3206;BME280;1615;53.602;11.418;2022-09-24T00:01:17;100945.44;;;14.54;100.00
3206;BME280;1615;53.602;11.418;2022-09-24T00:03:48;100938.47;;;14.56;100.00
3206;BME280;1615;53.602;11.418;2022-09-24T00:06:15;100944.81;;;14.57;100.00
3206;BME280;1615;53.602;11.418;2022-09-24T00:08:44;100939.47;;;14.60;100.00
3206;BME280;1615;53.602;11.418;2022-09-24T00:11:10;100925.22;;;14.67;100.00
3206;BME280;1615;53.602;11.418;2022-09-24T00:13:36;100927.47;;;14.65;100.00
3206;BME280;1615;53.602;11.418;2022-09-24T00:16:05;100925.97;;;14.59;100.00
3206;BME280;1615;53.602;11.418;2022-09-24T00:18:31;100929.41;;;14.56;100.00
3206;BME280;1615;53.602;11.418;2022-09-24T00:20:56;100928.56;;;14.55;100.00
3206;BME280;1615;53.602;11.418;2022-09-24T00:23:22;100921.13;;;14.56;100.00
3206;BME280;1615;53.602;11.418;2022-09-24T00:25:47;100918.00;;;14.57;100.00
3206;BME280;1615;53.602;11.418;2022-09-24T00:28:32;100914.47;;;14.57;100.00
3206;BME280;1615;53.602;11.418;2022-09-24T00:30:58;100918.34;;;14.56;100.00
3206;BME280;1615;53.602;11.418;2022-09-24T00:33:25;100911.69;;;14.57;100.00
3206;BME280;1615;53.602;11.418;2022-09-24T00:35:52;100914.94;;;14.59;100.00
3206;BME280;1615;53.602;11.418;2022-09-24T00:38:17;100943.03;;;14.61;100.00
3206;BME280;1615;53.602;11.418;2022-09-24T00:40:43;100908.81;;;14.62;100.00
3206;BME280;1615;53.602;11.418;2022-09-24T00:43:21;100908.34;;;14.68;100.00
3206;BME280;1615;53.602;11.418;2022-09-24T00:45:47;100791.91;;;13.97;100.00
3206;BME280;1615;53.602;11.418;2022-09-24T00:48:13;100905.56;;;14.68;100.00
3206;BME280;1615;53.602;11.418;2022-09-24T00:50:38;100808.66;;;14.00;100.00
3206;BME280;1615;53.602;11.418;2022-09-24T00:53:09;100906.88;;;14.71;100.00
3206;BME280;1615;53.602;11.418;2022-09-24T00:55:38;100913.22;;;14.71;100.00
3206;BME280;1615;53.602;11.418;2022-09-24T00:58:07;100906.56;;;14.72;100.00
3206;BME280;1615;53.602;11.418;2022-09-24T01:00:35;100846.03;;;14.37;100.00
3206;BME280;1615;53.602;11.418;2022-09-24T01:03:08;100900.19;;;14.63;100.00
3206;BME280;1615;53.602;11.418;2022-09-24T01:05:35;100923.88;;;14.56;100.00
3206;BME280;1615;53.602;11.418;2022-09-24T01:08:01;100906.63;;;14.50;100.00
3206;BME280;1615;53.602;11.418;2022-09-24T01:19:21;100893.13;;;14.49;100.00
3206;BME280;1615;53.602;11.418;2022-09-24T01:21:57;100891.50;;;14.48;100.00
3206;BME280;1615;53.602;11.418;2022-09-24T01:24:57;100895.91;;;14.49;100.00
3206;BME280;1615;53.602;11.418;2022-09-24T01:30:12;100868.44;;;14.44;100.00
3206;BME280;1615;53.602;11.418;2022-09-24T01:32:52;100876.44;;;14.54;100.00
3206;BME280;1615;53.602;11.418;2022-09-24T01:35:25;100852.44;;;14.24;100.00
3206;BME280;1615;53.602;11.418;2022-09-24T01:37:55;100879.34;;;14.49;100.00
3206;BME280;1615;53.602;11.418;2022-09-24T01:40:24;100873.34;;;14.47;100.00
3206;BME280;1615;53.602;11.418;2022-09-24T01:42:51;100879.16;;;14.45;100.00
3206;BME280;1615;53.602;11.418;2022-09-24T01:45:18;100883.09;;;14.53;100.00
3206;BME280;1615;53.602;11.418;2022-09-24T01:47:44;100871.91;;;14.49;100.00
3206;BME280;1615;53.602;11.418;2022-09-24T01:50:12;100873.34;;;14.47;100.00
3206;BME280;1615;53.602;11.418;2022-09-24T01:53:01;100883.06;;;14.44;100.00
3206;BME280;1615;53.602;11.418;2022-09-24T01:55:32;100886.81;;;14.48;100.00
3206;BME280;1615;53.602;11.418;2022-09-24T01:58:04;100831.38;;;14.28;100.00
3206;BME280;1615;53.602;11.418;2022-09-24T02:00:31;100864.78;;;14.57;100.00
3206;BME280;1615;53.602;11.418;2022-09-24T02:03:07;100844.13;;;14.46;100.00
3206;BME280;1615;53.602;11.418;2022-09-24T02:05:37;100859.53;;;14.47;100.00
3206;BME280;1615;53.602;11.418;2022-09-24T02:13:18;100863.09;;;14.47;100.00
3206;BME280;1615;53.602;11.418;2022-09-24T02:15:49;100866.72;;;14.56;100.00
3206;BME280;1615;53.602;11.418;2022-09-24T02:18:20;100865.28;;;14.59;100.00
3206;BME280;1615;53.602;11.418;2022-09-24T02:20:49;100863.34;;;14.59;100.00
3206;BME280;1615;53.602;11.418;2022-09-24T02:23:16;100862.22;;;14.60;100.00
3206;BME280;1615;53.602;11.418;2022-09-24T02:25:51;100853.09;;;14.60;100.00
3206;BME280;1615;53.602;11.418;2022-09-24T02:28:18;100864.00;;;14.65;100.00
3206;BME280;1615;53.602;11.418;2022-09-24T02:30:49;100859.50;;;14.69;100.00
3206;BME280;1615;53.602;11.418;2022-09-24T02:33:15;100853.97;;;14.69;100.00
3206;BME280;1615;53.602;11.418;2022-09-24T02:36:00;100779.22;;;14.18;100.00
3206;BME280;1615;53.602;11.418;2022-09-24T02:38:25;100860.72;;;14.54;100.00
3206;BME280;1615;53.602;11.418;2022-09-24T02:40:51;100864.28;;;14.55;100.00
3206;BME280;1615;53.602;11.418;2022-09-24T02:43:17;100859.41;;;14.52;100.00
3206;BME280;1615;53.602;11.418;2022-09-24T02:45:42;100835.00;;;14.37;100.00
3206;BME280;1615;53.602;11.418;2022-09-24T02:48:07;100864.38;;;14.41;100.00
3206;BME280;1615;53.602;11.418;2022-09-24T02:50:33;100852.53;;;14.41;100.00
3206;BME280;1615;53.602;11.418;2022-09-24T02:52:58;100856.94;;;14.42;100.00
3206;BME280;1615;53.602;11.418;2022-09-24T02:55:23;100855.59;;;14.39;100.00
3206;BME280;1615;53.602;11.418;2022-09-24T02:57:49;100427.19;;;11.79;100.00
3206;BME280;1615;53.602;11.418;2022-09-24T03:00:14;100859.69;;;14.42;100.00
3206;BME280;1615;53.602;11.418;2022-09-24T03:02:40;100845.41;;;14.40;100.00
3206;BME280;1615;53.602;11.418;2022-09-24T03:05:05;100781.88;;;14.01;100.00
3206;BME280;1615;53.602;11.418;2022-09-24T03:07:31;100864.53;;;14.45;100.00
3206;BME280;1615;53.602;11.418;2022-09-24T03:09:56;100823.41;;;14.26;100.00
3206;BME280;1615;53.602;11.418;2022-09-24T03:12:21;100858.41;;;14.48;100.00
3206;BME280;1615;53.602;11.418;2022-09-24T03:14:47;100873.16;;;14.43;100.00
3206;BME280;1615;53.602;11.418;2022-09-24T03:17:12;100864.88;;;14.43;100.00
3206;BME280;1615;53.602;11.418;2022-09-24T03:19:37;100873.47;;;14.42;100.00
3206;BME280;1615;53.602;11.418;2022-09-24T03:22:03;100863.56;;;14.41;100.00
3206;BME280;1615;53.602;11.418;2022-09-24T03:24:28;100854.75;;;14.30;100.00
3206;BME280;1615;53.602;11.418;2022-09-24T03:26:54;100872.78;;;14.36;100.00
3206;BME280;1615;53.602;11.418;2022-09-24T03:29:19;100867.25;;;14.36;100.00
3206;BME280;1615;53.602;11.418;2022-09-24T03:32:04;100862.88;;;14.35;100.00
3206;BME280;1615;53.602;11.418;2022-09-24T03:34:29;100732.75;;;13.50;100.00
3206;BME280;1615;53.602;11.418;2022-09-24T03:36:55;100861.44;;;14.38;100.00
3206;BME280;1615;53.602;11.418;2022-09-24T03:39:20;100871.97;;;14.36;100.00
3206;BME280;1615;53.602;11.418;2022-09-24T03:41:45;100874.59;;;14.41;100.00
3206;BME280;1615;53.602;11.418;2022-09-24T03:44:10;100863.34;;;14.59;100.00
3206;BME280;1615;53.602;11.418;2022-09-24T03:46:36;100873.97;;;14.44;100.00
3206;BME280;1615;53.602;11.418;2022-09-24T03:49:01;100875.22;;;14.38;100.00
3206;BME280;1615;53.602;11.418;2022-09-24T03:51:26;100875.09;;;14.43;100.00
3206;BME280;1615;53.602;11.418;2022-09-24T03:53:52;100875.31;;;14.24;100.00
3206;BME280;1615;53.602;11.418;2022-09-24T03:56:17;100876.25;;;14.20;100.00
3206;BME280;1615;53.602;11.418;2022-09-24T03:58:42;100746.59;;;13.37;100.00
3206;BME280;1615;53.602;11.418;2022-09-24T04:01:12;100874.22;;;14.12;100.00
3206;BME280;1615;53.602;11.418;2022-09-24T04:03:38;100878.81;;;14.16;100.00
3206;BME280;1615;53.602;11.418;2022-09-24T04:06:04;100740.72;;;13.30;100.00
3206;BME280;1615;53.602;11.418;2022-09-24T04:08:30;100875.72;;;14.18;100.00
3206;BME280;1615;53.602;11.418;2022-09-24T04:10:56;100820.47;;;13.79;100.00
3206;BME280;1615;53.602;11.418;2022-09-24T04:13:21;100874.34;;;14.07;100.00
3206;BME280;1615;53.602;11.418;2022-09-24T04:15:47;100874.97;;;14.04;100.00
3206;BME280;1615;53.602;11.418;2022-09-24T04:18:14;100881.09;;;14.01;100.00
3206;BME280;1615;53.602;11.418;2022-09-24T04:20:40;100847.53;;;13.77;100.00
3206;BME280;1615;53.602;11.418;2022-09-24T04:23:06;100723.28;;;12.99;100.00
3206;BME280;1615;53.602;11.418;2022-09-24T04:25:32;100848.97;;;13.74;100.00
3206;BME280;1615;53.602;11.418;2022-09-24T04:28:03;100886.88;;;13.91;100.00
3206;BME280;1615;53.602;11.418;2022-09-24T04:30:30;100883.00;;;13.92;100.00
3206;BME280;1615;53.602;11.418;2022-09-24T04:32:55;100838.63;;;13.58;100.00
3206;BME280;1615;53.602;11.418;2022-09-24T04:35:25;100874.59;;;13.97;100.00
3206;BME280;1615;53.602;11.418;2022-09-24T04:37:51;100878.16;;;13.97;100.00
3206;BME280;1615;53.602;11.418;2022-09-24T04:40:16;100870.31;;;13.91;100.00
3206;BME280;1615;53.602;11.418;2022-09-24T04:42:43;100766.09;;;13.27;100.00
3206;BME280;1615;53.602;11.418;2022-09-24T04:45:13;100841.03;;;13.73;100.00
3206;BME280;1615;53.602;11.418;2022-09-24T04:47:39;100876.53;;;13.96;100.00
3206;BME280;1615;53.602;11.418;2022-09-24T04:50:06;100869.06;;;13.97;100.00
3206;BME280;1615;53.602;11.418;2022-09-24T04:52:32;100871.66;;;13.93;100.00
3206;BME280;1615;53.602;11.418;2022-09-24T04:54:59;100868.59;;;13.95;100.00
3206;BME280;1615;53.602;11.418;2022-09-24T04:57:25;100851.81;;;13.83;100.00
3206;BME280;1615;53.602;11.418;2022-09-24T04:59:51;100873.09;;;13.91;100.00
3206;BME280;1615;53.602;11.418;2022-09-24T05:02:17;100875.84;;;13.91;100.00
3206;BME280;1615;53.602;11.418;2022-09-24T05:04:43;100871.75;;;13.88;100.00
3206;BME280;1615;53.602;11.418;2022-09-24T05:07:09;100862.88;;;13.91;100.00
3206;BME280;1615;53.602;11.418;2022-09-24T05:09:34;100869.72;;;13.94;100.00
3206;BME280;1615;53.602;11.418;2022-09-24T05:12:00;100868.78;;;13.98;100.00
3206;BME280;1615;53.602;11.418;2022-09-24T05:14:26;100876.59;;;14.05;100.00
3206;BME280;1615;53.602;11.418;2022-09-24T05:16:51;100874.97;;;14.04;100.00
3206;BME280;1615;53.602;11.418;2022-09-24T05:19:17;100871.47;;;14.12;100.00
3206;BME280;1615;53.602;11.418;2022-09-24T05:21:42;100868.09;;;14.15;100.00
3206;BME280;1615;53.602;11.418;2022-09-24T05:24:08;100873.28;;;14.16;100.00
3206;BME280;1615;53.602;11.418;2022-09-24T05:26:33;100865.81;;;14.17;100.00
3206;BME280;1615;53.602;11.418;2022-09-24T05:29:17;100870.63;;;14.25;100.00
3206;BME280;1615;53.602;11.418;2022-09-24T05:31:43;100762.31;;;13.58;100.00
3206;BME280;1615;53.602;11.418;2022-09-24T05:34:08;100774.97;;;13.59;100.00
3206;BME280;1615;53.602;11.418;2022-09-24T05:36:33;100873.38;;;14.25;100.00
3206;BME280;1615;53.602;11.418;2022-09-24T05:38:59;100872.84;;;14.23;100.00
3206;BME280;1615;53.602;11.418;2022-09-24T05:41:25;100870.50;;;14.30;100.00
3206;BME280;1615;53.602;11.418;2022-09-24T05:43:50;100867.09;;;14.33;100.00
3206;BME280;1615;53.602;11.418;2022-09-24T05:46:15;100870.50;;;14.30;100.00
3206;BME280;1615;53.602;11.418;2022-09-24T05:48:41;100867.25;;;14.36;100.00
3206;BME280;1615;53.602;11.418;2022-09-24T05:51:06;100868.44;;;14.44;100.00
3206;BME280;1615;53.602;11.418;2022-09-24T05:53:32;100869.56;;;14.43;100.00
3206;BME280;1615;53.602;11.418;2022-09-24T05:55:58;100870.06;;;14.45;100.00
3206;BME280;1615;53.602;11.418;2022-09-24T05:58:23;100840.78;;;14.27;100.00
3206;BME280;1615;53.602;11.418;2022-09-24T06:00:49;100745.53;;;13.68;100.00
3206;BME280;1615;53.602;11.418;2022-09-24T06:03:16;100872.06;;;14.53;100.00
3206;BME280;1615;53.602;11.418;2022-09-24T06:05:43;100865.56;;;14.49;100.00
3206;BME280;1615;53.602;11.418;2022-09-24T06:08:10;100869.31;;;14.53;100.00
3206;BME280;1615;53.602;11.418;2022-09-24T06:10:36;100869.50;;;14.56;100.00
3206;BME280;1615;53.602;11.418;2022-09-24T06:13:01;100877.94;;;14.60;100.00
3206;BME280;1615;53.602;11.418;2022-09-24T06:15:27;100871.81;;;14.63;100.00
3206;BME280;1615;53.602;11.418;2022-09-24T06:17:53;100882.00;;;14.62;100.00
3206;BME280;1615;53.602;11.418;2022-09-24T06:20:19;100872.31;;;14.73;100.00
3206;BME280;1615;53.602;11.418;2022-09-24T06:22:44;100876.41;;;14.76;100.00
3206;BME280;1615;53.602;11.418;2022-09-24T06:25:10;100840.94;;;14.61;100.00
3206;BME280;1615;53.602;11.418;2022-09-24T06:27:35;100856.75;;;14.77;100.00
3206;BME280;1615;53.602;11.418;2022-09-24T06:30:00;100874.84;;;14.92;100.00
3206;BME280;1615;53.602;11.418;2022-09-24T06:32:26;100882.50;;;14.95;100.00
3206;BME280;1615;53.602;11.418;2022-09-24T06:34:51;100871.13;;;14.96;100.00
3206;BME280;1615;53.602;11.418;2022-09-24T06:37:16;100771.25;;;14.38;100.00
3206;BME280;1615;53.602;11.418;2022-09-24T06:39:42;100874.88;;;15.09;100.00
3206;BME280;1615;53.602;11.418;2022-09-24T06:42:07;100788.03;;;14.59;100.00
3206;BME280;1615;53.602;11.418;2022-09-24T06:44:33;100875.28;;;15.24;100.00
3206;BME280;1615;53.602;11.418;2022-09-24T06:46:59;100857.69;;;15.12;100.00
3206;BME280;1615;53.602;11.418;2022-09-24T06:49:25;100859.47;;;15.16;100.00
3206;BME280;1615;53.602;11.418;2022-09-24T06:51:52;100880.38;;;15.39;100.00
3206;BME280;1615;53.602;11.418;2022-09-24T06:54:18;100873.72;;;15.49;100.00
3206;BME280;1615;53.602;11.418;2022-09-24T06:56:43;100876.34;;;15.54;100.00
3206;BME280;1615;53.602;11.418;2022-09-24T06:59:09;100826.19;;;15.30;100.00
3206;BME280;1615;53.602;11.418;2022-09-24T07:01:34;100877.00;;;15.68;100.00
3206;BME280;1615;53.602;11.418;2022-09-24T07:03:59;100777.91;;;15.02;100.00
3206;BME280;1615;53.602;11.418;2022-09-24T07:06:25;100877.63;;;15.65;100.00
3206;BME280;1615;53.602;11.418;2022-09-24T07:08:50;100884.78;;;15.66;100.00
3206;BME280;1615;53.602;11.418;2022-09-24T07:11:15;100888.06;;;15.68;100.00
3206;BME280;1615;53.602;11.418;2022-09-24T07:13:41;100884.00;;;15.74;100.00
3206;BME280;1615;53.602;11.418;2022-09-24T07:16:06;100812.25;;;15.35;100.00
3206;BME280;1615;53.602;11.418;2022-09-24T07:18:31;100880.56;;;15.77;100.00
3206;BME280;1615;53.602;11.418;2022-09-24T07:20:56;100880.91;;;15.84;100.00
3206;BME280;1615;53.602;11.418;2022-09-24T07:23:22;100890.50;;;15.95;100.00
3206;BME280;1615;53.602;11.418;2022-09-24T07:25:48;100870.81;;;15.88;100.00
3206;BME280;1615;53.602;11.418;2022-09-24T07:28:15;100891.81;;;16.06;100.00
3206;BME280;1615;53.602;11.418;2022-09-24T07:30:40;100882.03;;;16.08;100.00
3206;BME280;1615;53.602;11.418;2022-09-24T07:33:07;100785.94;;;15.46;100.00
3206;BME280;1615;53.602;11.418;2022-09-24T07:35:33;100900.25;;;16.09;100.00
3206;BME280;1615;53.602;11.418;2022-09-24T07:38:06;100880.22;;;16.04;100.00
3206;BME280;1615;53.602;11.418;2022-09-24T07:40:32;100886.41;;;16.18;100.00
3206;BME280;1615;53.602;11.418;2022-09-24T07:42:59;100888.69;;;16.16;100.00
3206;BME280;1615;53.602;11.418;2022-09-24T07:45:26;100884.28;;;16.15;100.00
3206;BME280;1615;53.602;11.418;2022-09-24T07:48:01;100883.31;;;16.19;100.00
3206;BME280;1615;53.602;11.418;2022-09-24T07:50:28;100784.00;;;15.55;100.00
3206;BME280;1615;53.602;11.418;2022-09-24T07:52:54;100887.38;;;16.22;100.00
3206;BME280;1615;53.602;11.418;2022-09-24T07:55:19;100792.59;;;15.70;100.00
3206;BME280;1615;53.602;11.418;2022-09-24T07:57:49;100870.31;;;16.11;100.00
3206;BME280;1615;53.602;11.418;2022-09-24T08:00:16;100772.28;;;15.41;100.00
3206;BME280;1615;53.602;11.418;2022-09-24T08:02:43;100897.97;;;16.11;100.00
3206;BME280;1615;53.602;11.418;2022-09-24T08:05:09;100893.25;;;16.12;100.00
3206;BME280;1615;53.602;11.418;2022-09-24T08:07:34;100900.41;;;16.13;100.00
3206;BME280;1615;53.602;11.418;2022-09-24T08:10:03;100890.47;;;16.20;100.00
3206;BME280;1615;53.602;11.418;2022-09-24T08:12:29;100902.84;;;16.23;100.00
3206;BME280;1615;53.602;11.418;2022-09-24T08:14:54;100885.72;;;16.38;100.00
3206;BME280;1615;53.602;11.418;2022-09-24T08:17:19;100894.50;;;16.57;100.00
3206;BME280;1615;53.602;11.418;2022-09-24T08:19:45;100892.06;;;16.64;100.00
3206;BME280;1615;53.602;11.418;2022-09-24T08:22:13;100885.81;;;16.75;100.00
3206;BME280;1615;53.602;11.418;2022-09-24T08:24:39;100896.66;;;16.89;100.00
3206;BME280;1615;53.602;11.418;2022-09-24T08:27:06;100852.75;;;16.70;100.00
3206;BME280;1615;53.602;11.418;2022-09-24T08:29:32;100916.66;;;17.03;100.00
3206;BME280;1615;53.602;11.418;2022-09-24T08:31:59;100901.16;;;17.10;100.00
3206;BME280;1615;53.602;11.418;2022-09-24T08:34:24;100855.31;;;16.84;100.00
3206;BME280;1615;53.602;11.418;2022-09-24T08:36:49;100827.97;;;16.74;100.00
3206;BME280;1615;53.602;11.418;2022-09-24T08:39:15;100900.16;;;17.35;100.00
3206;BME280;1615;53.602;11.418;2022-09-24T08:41:55;100878.00;;;17.35;100.00
3206;BME280;1615;53.602;11.418;2022-09-24T08:44:37;100896.53;;;17.52;100.00
3206;BME280;1615;53.602;11.418;2022-09-24T08:47:36;100901.00;;;17.65;100.00
3206;BME280;1615;53.602;11.418;2022-09-24T08:50:12;100894.13;;;17.71;100.00
3206;BME280;1615;53.602;11.418;2022-09-24T08:55:58;100885.13;;;17.74;100.00
3206;BME280;1615;53.602;11.418;2022-09-24T08:58:36;100900.69;;;17.87;100.00
3206;BME280;1615;53.602;11.418;2022-09-24T09:11:23;100877.25;;;17.96;100.00
3206;BME280;1615;53.602;11.418;2022-09-24T09:14:00;100855.00;;;17.64;100.00
3206;BME280;1615;53.602;11.418;2022-09-24T09:16:42;100912.63;;;18.20;100.00
3206;BME280;1615;53.602;11.418;2022-09-24T09:19:12;100911.59;;;18.24;100.00
3206;BME280;1615;53.602;11.418;2022-09-24T09:21:41;100899.31;;;18.13;100.00
3206;BME280;1615;53.602;11.418;2022-09-24T09:24:24;100912.59;;;18.08;100.00
3206;BME280;1615;53.602;11.418;2022-09-24T09:26:54;100924.88;;;17.98;100.00
3206;BME280;1615;53.602;11.418;2022-09-24T09:29:24;100915.56;;;18.03;100.00
3206;BME280;1615;53.602;11.418;2022-09-24T09:34:59;100901.19;;;18.01;100.00
3206;BME280;1615;53.602;11.418;2022-09-24T09:37:47;100909.88;;;18.20;100.00
3206;BME280;1615;53.602;11.418;2022-09-24T09:40:34;100911.16;;;18.02;100.00
3206;BME280;1615;53.602;11.418;2022-09-24T09:43:07;100865.25;;;17.72;100.00
3206;BME280;1615;53.602;11.418;2022-09-24T09:45:57;100912.19;;;17.97;100.00
3206;BME280;1615;53.602;11.418;2022-09-24T09:48:28;100880.13;;;17.88;100.00
3206;BME280;1615;53.602;11.418;2022-09-24T09:51:01;100910.41;;;18.13;100.00
3206;BME280;1615;53.602;11.418;2022-09-24T09:53:30;100897.19;;;18.10;100.00
3206;BME280;1615;53.602;11.418;2022-09-24T09:55:58;100903.75;;;18.26;100.00
3206;BME280;1615;53.602;11.418;2022-09-24T09:58:26;100910.53;;;18.17;100.00
3206;BME280;1615;53.602;11.418;2022-09-24T10:01:12;100904.38;;;18.32;100.00
3206;BME280;1615;53.602;11.418;2022-09-24T10:06:12;100913.78;;;18.72;100.00
3206;BME280;1615;53.602;11.418;2022-09-24T10:08:37;100911.91;;;18.76;100.00
3206;BME280;1615;53.602;11.418;2022-09-24T10:11:04;100909.63;;;18.78;100.00
3206;BME280;1615;53.602;11.418;2022-09-24T10:13:32;100830.63;;;18.43;100.00
3206;BME280;1615;53.602;11.418;2022-09-24T10:16:03;100911.47;;;18.98;100.00
3206;BME280;1615;53.602;11.418;2022-09-24T10:18:33;100910.78;;;18.89;100.00
3206;BME280;1615;53.602;11.418;2022-09-24T10:21:04;100905.25;;;18.89;100.00
3206;BME280;1615;53.602;11.418;2022-09-24T10:23:43;100902.81;;;18.87;100.00
3206;BME280;1615;53.602;11.418;2022-09-24T10:26:13;100910.53;;;18.82;100.00
3206;BME280;1615;53.602;11.418;2022-09-24T10:28:43;100772.41;;;17.90;100.00
3206;BME280;1615;53.602;11.418;2022-09-24T10:31:30;100914.41;;;19.01;100.00
3206;BME280;1615;53.602;11.418;2022-09-24T10:33:59;100774.88;;;18.15;100.00
3206;BME280;1615;53.602;11.418;2022-09-24T10:36:27;100914.84;;;18.91;100.00
3206;BME280;1615;53.602;11.418;2022-09-24T10:39:20;100911.81;;;18.84;100.00
3206;BME280;1615;53.602;11.418;2022-09-24T10:41:50;100907.75;;;18.82;100.00
3206;BME280;1615;53.602;11.418;2022-09-24T10:44:17;100908.34;;;18.87;100.00
3206;BME280;1615;53.602;11.418;2022-09-24T10:55:38;100963.31;;;19.26;100.00
3206;BME280;1615;53.602;11.418;2022-09-24T11:01:10;100901.69;;;19.24;100.00
3206;BME280;1615;53.602;11.418;2022-09-24T11:03:51;100903.22;;;19.22;100.00
3206;BME280;1615;53.602;11.418;2022-09-24T11:06:40;100902.03;;;19.35;100.00
3206;BME280;1615;53.602;11.418;2022-09-24T11:09:17;100904.38;;;19.33;100.00
3206;BME280;1615;53.602;11.418;2022-09-24T11:14:55;100896.25;;;19.28;100.00
3206;BME280;1615;53.602;11.418;2022-09-24T11:17:37;100904.13;;;19.26;100.00
3206;BME280;1615;53.602;11.418;2022-09-24T11:22:58;100881.13;;;18.93;100.00
3206;BME280;1615;53.602;11.418;2022-09-24T11:28:14;100901.31;;;19.14;100.00
3206;BME280;1615;53.602;11.418;2022-09-24T11:31:11;100907.56;;;19.11;100.00
3206;BME280;1615;53.602;11.418;2022-09-24T11:44:40;100914.75;;;19.00;100.00
3206;BME280;1615;53.602;11.418;2022-09-24T11:47:34;100908.47;;;18.91;100.00
3206;BME280;1615;53.602;11.418;2022-09-24T11:55:47;100906.00;;;18.65;100.00
3206;BME280;1615;53.602;11.418;2022-09-24T11:58:24;100921.81;;;18.53;100.00
3206;BME280;1615;53.602;11.418;2022-09-24T12:00:53;100912.88;;;18.47;100.00
3206;BME280;1615;53.602;11.418;2022-09-24T12:03:38;100913.91;;;18.43;100.00
3206;BME280;1615;53.602;11.418;2022-09-24T12:06:09;100918.88;;;18.37;100.00
3206;BME280;1615;53.602;11.418;2022-09-24T12:08:40;100914.63;;;18.40;100.00
3206;BME280;1615;53.602;11.418;2022-09-24T12:11:14;100921.50;;;18.34;100.00
3206;BME280;1615;53.602;11.418;2022-09-24T12:13:49;100912.72;;;18.32;100.00
3206;BME280;1615;53.602;11.418;2022-09-24T12:16:22;100915.88;;;18.22;100.00
3206;BME280;1615;53.602;11.418;2022-09-24T12:18:58;100924.63;;;18.12;100.00
3206;BME280;1615;53.602;11.418;2022-09-24T12:21:30;100878.59;;;17.70;100.00
3206;BME280;1615;53.602;11.418;2022-09-24T12:24:02;100921.78;;;18.00;100.00
3206;BME280;1615;53.602;11.418;2022-09-24T12:26:29;100908.25;;;17.98;100.00
3206;BME280;1615;53.602;11.418;2022-09-24T12:29:00;100929.50;;;18.15;100.00
3206;BME280;1615;53.602;11.418;2022-09-24T12:32:02;100833.78;;;17.68;100.00
3206;BME280;1615;53.602;11.418;2022-09-24T12:35:03;100918.41;;;18.15;100.00
3206;BME280;1615;53.602;11.418;2022-09-24T12:37:36;100934.22;;;18.14;100.00
3206;BME280;1615;53.602;11.418;2022-09-24T12:42:56;100915.97;;;17.93;100.00
3206;BME280;1615;53.602;11.418;2022-09-24T12:45:23;100937.59;;;17.99;100.00
3206;BME280;1615;53.602;11.418;2022-09-24T12:48:01;100937.88;;;17.86;100.00
3206;BME280;1615;53.602;11.418;2022-09-24T12:50:29;100932.06;;;17.79;100.00
3206;BME280;1615;53.602;11.418;2022-09-24T12:52:56;100932.94;;;17.71;100.00
3206;BME280;1615;53.602;11.418;2022-09-24T12:55:30;100921.34;;;17.48;100.00
3206;BME280;1615;53.602;11.418;2022-09-24T12:58:02;100911.94;;;17.32;100.00
3206;BME280;1615;53.602;11.418;2022-09-24T13:00:41;100932.63;;;17.35;100.00
3206;BME280;1615;53.602;11.418;2022-09-24T13:05:51;100921.91;;;16.96;100.00
3206;BME280;1615;53.602;11.418;2022-09-24T13:11:00;100913.63;;;16.79;100.00
3206;BME280;1615;53.602;11.418;2022-09-24T13:13:31;100872.34;;;16.57;100.00
3206;BME280;1615;53.602;11.418;2022-09-24T13:16:02;100798.72;;;16.10;100.00
3206;BME280;1615;53.602;11.418;2022-09-24T13:18:31;100925.69;;;16.83;100.00
3206;BME280;1615;53.602;11.418;2022-09-24T13:21:07;100922.09;;;16.91;100.00
3206;BME280;1615;53.602;11.418;2022-09-24T13:23:47;100927.63;;;16.91;100.00
3206;BME280;1615;53.602;11.418;2022-09-24T13:26:33;100924.06;;;16.82;100.00
3206;BME280;1615;53.602;11.418;2022-09-24T13:29:03;100920.66;;;16.76;100.00
3206;BME280;1615;53.602;11.418;2022-09-24T13:31:36;100926.38;;;16.71;100.00
3206;BME280;1615;53.602;11.418;2022-09-24T13:36:47;100928.03;;;16.64;100.00
3206;BME280;1615;53.602;11.418;2022-09-24T13:39:28;100864.75;;;16.20;100.00
3206;BME280;1615;53.602;11.418;2022-09-24T13:42:15;100926.38;;;16.63;100.00
3206;BME280;1615;53.602;11.418;2022-09-24T13:44:48;100831.28;;;15.96;100.00
3206;BME280;1615;53.602;11.418;2022-09-24T13:50:03;100913.41;;;16.55;100.00
3206;BME280;1615;53.602;11.418;2022-09-24T13:52:35;100923.78;;;16.58;100.00
3206;BME280;1615;53.602;11.418;2022-09-24T13:55:10;100919.91;;;16.59;100.00
3206;BME280;1615;53.602;11.418;2022-09-24T13:57:44;100923.97;;;16.61;100.00
3206;BME280;1615;53.602;11.418;2022-09-24T14:02:36;100917.13;;;16.59;100.00
3206;BME280;1615;53.602;11.418;2022-09-24T14:05:13;100883.13;;;16.33;100.00
3206;BME280;1615;53.602;11.418;2022-09-24T14:07:39;100920.25;;;16.49;100.00
3206;BME280;1615;53.602;11.418;2022-09-24T14:10:11;100857.59;;;16.19;100.00
3206;BME280;1615;53.602;11.418;2022-09-24T14:12:37;100927.06;;;16.60;100.00
3206;BME280;1615;53.602;11.418;2022-09-24T14:15:11;100917.31;;;16.54;100.00
3206;BME280;1615;53.602;11.418;2022-09-24T14:17:38;100922.22;;;16.40;100.00
3206;BME280;1615;53.602;11.418;2022-09-24T14:20:04;100931.97;;;16.46;100.00
3206;BME280;1615;53.602;11.418;2022-09-24T14:22:33;100926.75;;;16.44;100.00
3206;BME280;1615;53.602;11.418;2022-09-24T14:25:07;100922.03;;;16.45;100.00
3206;BME280;1615;53.602;11.418;2022-09-24T14:27:36;100922.66;;;16.50;100.00
3206;BME280;1615;53.602;11.418;2022-09-24T14:30:07;100924.47;;;16.55;100.00
3206;BME280;1615;53.602;11.418;2022-09-24T14:32:42;100920.56;;;16.56;100.00